createdAt,value
2017-07-18T00:00:26.241Z,102083
2017-07-18T00:02:54.415Z,102081
2017-07-18T00:05:22.612Z,102080
2017-07-18T00:07:51.552Z,102081
2017-07-18T00:10:19.723Z,102081
2017-07-18T00:12:47.928Z,102088
2017-07-18T00:15:16.102Z,102087
2017-07-18T00:17:44.277Z,102088
2017-07-18T00:20:12.474Z,102100
2017-07-18T00:22:41.415Z,102084
2017-07-18T00:25:09.589Z,102087
2017-07-18T00:27:37.793Z,102096
2017-07-18T00:30:05.968Z,102097
2017-07-18T00:32:34.140Z,102090
2017-07-18T00:35:02.340Z,102092
2017-07-18T00:37:31.283Z,102084
2017-07-18T00:39:59.449Z,102091
2017-07-18T00:42:27.660Z,102085
2017-07-18T00:44:55.827Z,102087
2017-07-18T00:47:24.008Z,102080
2017-07-18T00:49:52.215Z,102081
2017-07-18T00:52:21.154Z,102076
2017-07-18T00:54:49.328Z,102082
2017-07-18T00:57:17.521Z,102075
2017-07-18T00:59:45.695Z,102076
2017-07-18T01:02:13.863Z,102082
2017-07-18T01:04:42.062Z,102073
2017-07-18T01:07:10.233Z,102080
2017-07-18T01:09:38.405Z,102081
2017-07-18T01:12:06.602Z,102071
2017-07-18T01:14:35.544Z,102070
2017-07-18T01:17:03.713Z,102074
2017-07-18T01:19:31.909Z,102069
2017-07-18T01:22:00.082Z,102070
2017-07-18T01:24:28.251Z,102072
2017-07-18T01:26:56.444Z,102069
2017-07-18T01:29:24.623Z,102073
2017-07-18T01:31:52.792Z,102074
2017-07-18T01:34:20.992Z,102074
2017-07-18T01:36:49.940Z,102073
2017-07-18T01:39:18.110Z,102074
2017-07-18T01:41:46.300Z,102072
2017-07-18T01:44:14.459Z,102077
2017-07-18T01:46:42.627Z,102077
2017-07-18T01:49:10.833Z,102084
2017-07-18T01:51:39.001Z,102079
2017-07-18T01:54:07.182Z,102087
2017-07-18T01:56:35.405Z,102081
2017-07-18T01:59:03.578Z,102081
2017-07-18T02:01:31.765Z,102083
2017-07-18T02:03:59.964Z,102080
2017-07-18T02:06:28.134Z,102083
2017-07-18T02:08:56.305Z,102076
2017-07-18T02:11:24.506Z,102080
2017-07-18T02:13:52.672Z,102080
2017-07-18T02:16:20.845Z,102078
2017-07-18T02:18:49.041Z,102073
2017-07-18T02:21:17.217Z,102074
2017-07-18T02:23:45.390Z,102082
2017-07-18T02:26:13.590Z,102081
2017-07-18T02:28:42.523Z,102083
2017-07-18T02:31:10.697Z,102087
2017-07-18T02:33:38.892Z,102087
2017-07-18T02:36:07.062Z,102078
2017-07-18T02:38:35.246Z,102084
2017-07-18T02:41:03.458Z,102078
2017-07-18T02:43:32.401Z,102079
2017-07-18T02:46:00.568Z,102084
2017-07-18T02:48:28.762Z,102088
2017-07-18T02:50:56.935Z,102089
2017-07-18T02:53:25.110Z,102078
2017-07-18T02:55:53.317Z,102084
2017-07-18T02:58:22.257Z,102083
2017-07-18T03:00:50.430Z,102084
2017-07-18T03:03:18.630Z,102081
2017-07-18T03:05:46.802Z,102087
2017-07-18T03:08:14.975Z,102079
2017-07-18T03:10:43.497Z,102088
2017-07-18T03:13:11.673Z,102078
2017-07-18T03:15:39.844Z,102089
2017-07-18T03:18:08.037Z,102090
2017-07-18T03:20:36.223Z,102085
2017-07-18T03:23:04.401Z,102085
2017-07-18T03:25:32.597Z,102094
2017-07-18T03:28:01.541Z,102089
2017-07-18T03:30:29.714Z,102084
2017-07-18T03:32:57.923Z,102087
2017-07-18T03:35:26.091Z,102101
2017-07-18T03:37:54.265Z,102095
2017-07-18T03:40:22.479Z,102088
2017-07-18T03:42:50.654Z,102092
2017-07-18T03:45:18.824Z,102096
2017-07-18T03:47:47.790Z,102103
2017-07-18T03:50:15.953Z,102100
2017-07-18T03:52:44.126Z,102096
2017-07-18T03:55:12.321Z,102100
2017-07-18T03:57:40.492Z,102103
2017-07-18T04:00:08.668Z,102101
2017-07-18T04:02:37.643Z,102106
2017-07-18T04:05:05.820Z,102097
2017-07-18T04:07:33.987Z,102103
2017-07-18T04:10:02.593Z,102109
2017-07-18T04:12:30.769Z,102104
2017-07-18T04:14:58.942Z,102107
2017-07-18T04:17:27.147Z,102118
2017-07-18T04:19:55.317Z,102111
2017-07-18T04:22:23.513Z,102118
2017-07-18T04:24:51.688Z,102128
2017-07-18T04:27:19.850Z,102118
2017-07-18T04:29:48.019Z,102126
2017-07-18T04:32:16.199Z,102121
2017-07-18T04:34:44.370Z,102121
2017-07-18T04:37:12.553Z,102111
2017-07-18T04:39:41.199Z,102125
2017-07-18T04:42:10.170Z,102121
2017-07-18T04:44:38.355Z,102114
2017-07-18T04:47:06.554Z,102116
2017-07-18T04:49:35.479Z,102116
2017-07-18T04:52:03.657Z,102119
2017-07-18T04:54:31.870Z,102126
2017-07-18T04:57:00.051Z,102115
2017-07-18T04:59:28.224Z,102128
2017-07-18T05:01:56.424Z,102137
2017-07-18T05:04:25.369Z,102129
2017-07-18T05:06:53.527Z,102126
2017-07-18T05:09:22.494Z,102130
2017-07-18T05:11:50.666Z,102125
2017-07-18T05:14:18.827Z,102121
2017-07-18T05:16:47.043Z,102125
2017-07-18T05:19:15.962Z,102121
2017-07-18T05:21:44.111Z,102129
2017-07-18T05:24:13.080Z,102129
2017-07-18T05:26:41.238Z,102126
2017-07-18T05:29:09.433Z,102130
2017-07-18T05:31:37.641Z,102127
2017-07-18T05:34:06.576Z,102126
2017-07-18T05:36:34.755Z,102134
2017-07-18T05:39:02.953Z,102122
2017-07-18T05:41:31.128Z,102132
2017-07-18T05:43:59.279Z,102129
2017-07-18T05:46:27.496Z,102135
2017-07-18T05:48:56.419Z,102136
2017-07-18T05:51:24.578Z,102134
2017-07-18T05:53:52.774Z,102139
2017-07-18T05:56:20.957Z,102143
2017-07-18T05:58:49.134Z,102147
2017-07-18T06:01:17.314Z,102142
2017-07-18T06:03:47.125Z,102149
2017-07-18T06:06:15.298Z,102148
2017-07-18T06:08:43.488Z,102146
2017-07-18T06:11:11.669Z,102153
2017-07-18T06:13:39.836Z,102157
2017-07-18T06:16:08.035Z,102156
2017-07-18T06:18:36.190Z,102147
2017-07-18T06:21:04.344Z,102149
2017-07-18T06:23:32.540Z,102152
2017-07-18T06:26:00.689Z,102154
2017-07-18T06:28:28.842Z,102150
2017-07-18T06:30:57.033Z,102153
2017-07-18T06:33:25.197Z,102157
2017-07-18T06:35:53.362Z,102163
2017-07-18T06:38:21.561Z,102161
2017-07-18T06:40:49.720Z,102164
2017-07-18T06:43:17.887Z,102158
2017-07-18T06:45:46.081Z,102160
2017-07-18T06:48:14.275Z,102157
2017-07-18T06:50:42.435Z,102155
2017-07-18T06:53:10.636Z,102156
2017-07-18T06:55:38.805Z,102154
2017-07-18T06:58:06.954Z,102150
2017-07-18T07:00:35.139Z,102153
2017-07-18T07:03:03.312Z,102158
2017-07-18T07:05:31.460Z,102160
2017-07-18T07:07:59.672Z,102154
2017-07-18T07:10:27.819Z,102149
2017-07-18T07:12:55.970Z,102151
2017-07-18T07:15:24.937Z,102146
2017-07-18T07:17:53.086Z,102147
2017-07-18T07:20:21.258Z,102145
2017-07-18T07:22:49.454Z,102148
2017-07-18T07:25:17.631Z,102146
2017-07-18T07:27:45.803Z,102134
2017-07-18T07:30:13.994Z,102139
2017-07-18T07:32:42.175Z,102137
2017-07-18T07:35:11.119Z,102142
2017-07-18T07:37:39.306Z,102151
2017-07-18T07:40:07.476Z,102146
2017-07-18T07:42:35.659Z,102151
2017-07-18T07:45:03.855Z,102151
2017-07-18T07:47:32.037Z,102160
2017-07-18T07:50:00.977Z,102161
2017-07-18T07:52:29.174Z,102154
2017-07-18T07:54:57.328Z,102156
2017-07-18T07:57:25.498Z,102165
2017-07-18T07:59:53.688Z,102168
2017-07-18T08:02:21.855Z,102158
2017-07-18T08:04:50.007Z,102160
2017-07-18T08:07:18.201Z,102169
2017-07-18T08:09:46.398Z,102165
2017-07-18T08:12:14.566Z,102165
2017-07-18T08:14:42.742Z,102165
2017-07-18T08:17:10.902Z,102169
2017-07-18T08:19:39.054Z,102172
2017-07-18T08:22:07.252Z,102176
2017-07-18T08:24:35.407Z,102168
2017-07-18T08:27:03.555Z,102161
2017-07-18T08:29:32.508Z,102170
2017-07-18T08:32:00.650Z,102170
2017-07-18T08:34:28.802Z,102173
2017-07-18T08:36:57.000Z,102170
2017-07-18T08:39:25.145Z,102170
2017-07-18T08:41:54.058Z,102167
2017-07-18T08:44:22.238Z,102166
2017-07-18T08:46:50.416Z,102166
2017-07-18T08:49:18.585Z,102158
2017-07-18T08:51:46.758Z,102170
2017-07-18T08:54:14.922Z,102167
2017-07-18T08:56:43.101Z,102156
2017-07-18T08:59:11.279Z,102155
2017-07-18T09:01:39.430Z,102161
2017-07-18T09:04:08.352Z,102157
2017-07-18T09:06:36.537Z,102157
2017-07-18T09:09:04.695Z,102164
2017-07-18T09:11:32.855Z,102154
2017-07-18T09:14:01.062Z,102162
2017-07-18T09:16:29.206Z,102157
2017-07-18T09:18:57.380Z,102154
2017-07-18T09:21:26.361Z,102155
2017-07-18T09:23:55.307Z,102151
2017-07-18T09:26:23.479Z,102148
2017-07-18T09:28:51.681Z,102142
2017-07-18T09:31:19.842Z,102149
2017-07-18T09:33:48.018Z,102153
2017-07-18T09:36:16.228Z,102144
2017-07-18T09:38:45.162Z,102137
2017-07-18T09:41:13.338Z,102138
2017-07-18T09:43:41.960Z,102137
2017-07-18T09:46:10.118Z,102137
2017-07-18T09:48:38.270Z,102136
2017-07-18T09:51:06.461Z,102138
2017-07-18T09:53:34.641Z,102132
2017-07-18T09:56:02.793Z,102133
2017-07-18T09:58:31.005Z,102134
2017-07-18T10:00:59.182Z,102130
2017-07-18T10:03:27.354Z,102137
2017-07-18T10:05:55.562Z,102118
2017-07-18T10:08:24.512Z,102126
2017-07-18T10:10:52.684Z,102114
2017-07-18T10:13:20.857Z,102120
2017-07-18T10:15:49.007Z,102117
2017-07-18T10:18:17.154Z,102127
2017-07-18T10:20:45.331Z,102122
2017-07-18T10:23:13.510Z,102114
2017-07-18T10:25:41.680Z,102114
2017-07-18T10:28:09.870Z,102117
2017-07-18T10:30:38.030Z,102103
2017-07-18T10:33:06.203Z,102106
2017-07-18T10:35:34.387Z,102097
2017-07-18T10:38:02.554Z,102103
2017-07-18T10:40:30.718Z,102111
2017-07-18T10:42:59.760Z,102111
2017-07-18T10:45:28.032Z,102109
2017-07-18T10:47:56.182Z,102107
2017-07-18T10:50:24.366Z,102109
2017-07-18T10:52:52.533Z,102097
2017-07-18T10:55:20.694Z,102096
2017-07-18T10:57:48.882Z,102098
2017-07-18T11:00:17.033Z,102098
2017-07-18T11:02:45.972Z,102097
2017-07-18T11:05:14.161Z,102088
2017-07-18T11:07:42.314Z,102089
2017-07-18T11:10:10.490Z,102086
2017-07-18T11:12:38.682Z,102088
2017-07-18T11:15:06.843Z,102084
2017-07-18T11:17:34.985Z,102093
2017-07-18T11:20:03.979Z,102079
2017-07-18T11:22:32.909Z,102088
2017-07-18T11:25:01.059Z,102088
2017-07-18T11:27:29.245Z,102085
2017-07-18T11:29:57.410Z,102086
2017-07-18T11:32:25.576Z,102087
2017-07-18T11:34:53.749Z,102091
2017-07-18T11:37:21.930Z,102091
2017-07-18T11:39:50.105Z,102080
2017-07-18T11:42:18.305Z,102081
2017-07-18T11:44:46.457Z,102081
2017-07-18T11:47:14.637Z,102080
2017-07-18T11:49:42.845Z,102080
2017-07-18T11:52:11.034Z,102086
2017-07-18T11:54:39.228Z,102080
2017-07-18T11:57:07.430Z,102075
2017-07-18T11:59:35.601Z,102075
2017-07-18T12:02:03.751Z,102072
2017-07-18T12:04:32.695Z,102074
2017-07-18T12:07:00.851Z,102070
2017-07-18T12:09:29.007Z,102070
2017-07-18T12:11:57.190Z,102060
2017-07-18T12:14:25.342Z,102068
2017-07-18T12:16:54.274Z,102052
2017-07-18T12:19:22.472Z,102056
2017-07-18T12:21:50.626Z,102054
2017-07-18T12:24:18.812Z,102050
2017-07-18T12:26:47.005Z,102042
2017-07-18T12:29:15.167Z,102035
2017-07-18T12:31:43.323Z,102037
2017-07-18T12:34:11.527Z,102019
2017-07-18T12:36:39.803Z,102028
2017-07-18T12:39:07.996Z,102022
2017-07-18T12:41:36.973Z,102022
2017-07-18T12:44:05.167Z,102011
2017-07-18T12:46:34.094Z,102018
2017-07-18T12:49:02.295Z,102017
2017-07-18T12:51:30.452Z,102011
2017-07-18T12:53:58.617Z,102005
2017-07-18T12:56:26.802Z,102005
2017-07-18T12:58:54.972Z,102000
2017-07-18T13:01:23.130Z,101990
2017-07-18T13:03:51.338Z,101999
2017-07-18T13:06:19.490Z,101993
2017-07-18T13:08:47.655Z,101997
2017-07-18T13:11:15.842Z,101993
2017-07-18T13:13:44.021Z,101986
2017-07-18T13:16:12.191Z,101986
2017-07-18T13:18:40.390Z,101976
2017-07-18T13:21:08.538Z,101983
2017-07-18T13:23:36.743Z,101975
2017-07-18T13:26:04.961Z,101968
2017-07-18T13:28:33.149Z,101969
2017-07-18T13:31:01.319Z,101978
2017-07-18T13:33:30.281Z,101974
2017-07-18T13:35:58.466Z,101979
2017-07-18T13:38:26.649Z,101957
2017-07-18T13:40:55.615Z,101956
2017-07-18T13:43:23.793Z,101960
2017-07-18T13:45:51.972Z,101955
2017-07-18T13:48:20.180Z,101952
2017-07-18T13:50:49.123Z,101950
2017-07-18T13:53:17.282Z,101946
2017-07-18T13:55:45.466Z,101951
2017-07-18T13:58:13.656Z,101946
2017-07-18T14:00:41.834Z,101944
2017-07-18T14:03:10.030Z,101944
2017-07-18T14:05:38.968Z,101939
2017-07-18T14:08:07.138Z,101934
2017-07-18T14:10:35.348Z,101929
2017-07-18T14:13:03.518Z,101932
2017-07-18T14:15:31.691Z,101923
2017-07-18T14:17:59.880Z,101920
2017-07-18T14:20:28.066Z,101925
2017-07-18T14:22:56.237Z,101913
2017-07-18T14:25:24.451Z,101916
2017-07-18T14:27:52.611Z,101910
2017-07-18T14:30:26.601Z,101910
2017-07-18T14:32:54.806Z,101911
2017-07-18T14:35:22.969Z,101909
2017-07-18T14:37:51.908Z,101909
2017-07-18T14:40:20.104Z,101893
2017-07-18T14:42:48.251Z,101895
2017-07-18T14:45:16.433Z,101894
2017-07-18T14:47:44.633Z,101894
2017-07-18T14:50:12.778Z,101889
2017-07-18T14:52:40.929Z,101887
2017-07-18T14:55:09.120Z,101885
2017-07-18T14:57:37.330Z,101887
2017-07-18T15:00:05.472Z,101881
2017-07-18T15:02:33.654Z,101887
2017-07-18T15:05:01.802Z,101881
2017-07-18T15:07:29.976Z,101871
2017-07-18T15:09:58.179Z,101873
2017-07-18T15:12:26.350Z,101863
2017-07-18T15:14:54.519Z,101870
2017-07-18T15:17:22.694Z,101861
2017-07-18T15:19:50.850Z,101858
2017-07-18T15:22:19.009Z,101855
2017-07-18T15:24:47.972Z,101859
2017-07-18T15:27:16.123Z,101858
2017-07-18T15:29:44.293Z,101861
2017-07-18T15:32:12.501Z,101855
2017-07-18T15:34:41.442Z,101863
2017-07-18T15:37:09.609Z,101863
2017-07-18T15:39:37.804Z,101854
2017-07-18T15:42:05.960Z,101852
2017-07-18T15:44:34.105Z,101852
2017-07-18T15:47:03.055Z,101843
2017-07-18T15:49:31.203Z,101841
2017-07-18T15:51:59.358Z,101838
2017-07-18T15:54:28.318Z,101837
2017-07-18T15:56:56.484Z,101829
2017-07-18T15:59:24.638Z,101842
2017-07-18T16:01:52.814Z,101829
2017-07-18T16:04:20.983Z,101828
2017-07-18T16:06:49.157Z,101827
2017-07-18T16:09:17.351Z,101823
2017-07-18T16:11:45.529Z,101836
2017-07-18T16:14:13.692Z,101833
2017-07-18T16:16:41.892Z,101828
2017-07-18T16:19:10.051Z,101830
2017-07-18T16:21:38.201Z,101822
2017-07-18T16:24:06.401Z,101818
2017-07-18T16:26:34.578Z,101810
2017-07-18T16:29:02.744Z,101811
2017-07-18T16:31:30.942Z,101811
2017-07-18T16:33:59.094Z,101812
2017-07-18T16:36:27.250Z,101817
2017-07-18T16:38:55.427Z,101803
2017-07-18T16:41:23.582Z,101797
2017-07-18T16:43:51.768Z,101803
2017-07-18T16:46:19.957Z,101800
2017-07-18T16:48:48.099Z,101803
2017-07-18T16:51:16.282Z,101804
2017-07-18T16:53:44.453Z,101807
2017-07-18T16:56:12.616Z,101808
2017-07-18T16:58:41.547Z,101810
2017-07-18T17:01:09.744Z,101803
2017-07-18T17:03:37.907Z,101805
2017-07-18T17:06:06.053Z,101803
2017-07-18T17:08:34.306Z,101803
2017-07-18T17:11:03.254Z,101791
2017-07-18T17:13:31.421Z,101787
2017-07-18T17:15:59.599Z,101794
2017-07-18T17:18:27.746Z,101794
2017-07-18T17:20:55.911Z,101791
2017-07-18T17:23:24.116Z,101796
2017-07-18T17:25:52.273Z,101784
2017-07-18T17:28:20.422Z,101794
2017-07-18T17:30:49.386Z,101789
2017-07-18T17:33:17.540Z,101786
2017-07-18T17:35:45.725Z,101782
2017-07-18T17:38:13.897Z,101771
2017-07-18T17:40:42.065Z,101766
2017-07-18T17:43:10.210Z,101770
2017-07-18T17:45:38.402Z,101773
2017-07-18T17:48:06.998Z,101775
2017-07-18T17:50:35.159Z,101773
2017-07-18T17:53:03.332Z,101772
2017-07-18T17:55:31.501Z,101766
2017-07-18T17:57:59.646Z,101767
2017-07-18T18:00:27.835Z,101766
2017-07-18T18:02:55.983Z,101770
2017-07-18T18:05:24.901Z,101771
2017-07-18T18:07:53.074Z,101766
2017-07-18T18:10:21.230Z,101764
2017-07-18T18:12:49.398Z,101765
2017-07-18T18:15:18.369Z,101760
2017-07-18T18:17:46.536Z,101766
2017-07-18T18:20:14.679Z,101766
2017-07-18T18:22:42.852Z,101765
2017-07-18T18:25:11.035Z,101769
2017-07-18T18:27:39.205Z,101777
2017-07-18T18:30:07.389Z,101767
2017-07-18T18:32:35.533Z,101771
2017-07-18T18:35:03.678Z,101767
2017-07-18T18:37:33.522Z,101770
2017-07-18T18:40:02.159Z,101772
2017-07-18T18:42:31.135Z,101759
2017-07-18T18:44:59.323Z,101764
2017-07-18T18:47:27.472Z,101766
2017-07-18T18:49:55.633Z,101762
2017-07-18T18:52:23.824Z,101763
2017-07-18T18:54:52.006Z,101771
2017-07-18T18:57:20.179Z,101770
2017-07-18T18:59:48.358Z,101782
2017-07-18T19:02:16.527Z,101783
2017-07-18T19:04:44.713Z,101772
2017-07-18T19:07:12.909Z,101776
2017-07-18T19:09:41.060Z,101771
2017-07-18T19:12:09.215Z,101775
2017-07-18T19:14:37.413Z,101779
2017-07-18T19:17:05.614Z,101787
2017-07-18T19:19:33.790Z,101778
2017-07-18T19:22:01.997Z,101779
2017-07-18T19:24:30.143Z,101795
2017-07-18T19:26:58.317Z,101791
2017-07-18T19:29:26.485Z,101804
2017-07-18T19:31:55.399Z,101799
2017-07-18T19:34:23.574Z,101798
2017-07-18T19:36:51.755Z,101800
2017-07-18T19:39:19.901Z,101803
2017-07-18T19:41:48.061Z,101810
2017-07-18T19:44:17.011Z,101807
2017-07-18T19:46:45.179Z,101806
2017-07-18T19:49:13.326Z,101804
2017-07-18T19:51:41.525Z,101808
2017-07-18T19:54:09.707Z,101798
2017-07-18T19:56:37.876Z,101796
2017-07-18T19:59:06.072Z,101795
2017-07-18T20:01:34.254Z,101801
2017-07-18T20:04:02.410Z,101804
2017-07-18T20:06:30.604Z,101798
2017-07-18T20:08:59.593Z,101792
2017-07-18T20:11:27.807Z,101794
2017-07-18T20:13:56.844Z,101795
2017-07-18T20:16:25.017Z,101793
2017-07-18T20:18:53.192Z,101791
2017-07-18T20:21:21.378Z,101789
2017-07-18T20:23:49.550Z,101787
2017-07-18T20:26:17.725Z,101780
2017-07-18T20:28:45.901Z,101780
2017-07-18T20:31:14.051Z,101786
2017-07-18T20:33:42.199Z,101777
2017-07-18T20:36:11.144Z,101776
2017-07-18T20:38:39.287Z,101777
2017-07-18T20:41:07.441Z,101779
2017-07-18T20:43:36.473Z,101786
2017-07-18T20:46:04.622Z,101777
2017-07-18T20:48:32.774Z,101777
2017-07-18T20:51:01.741Z,101777
2017-07-18T20:53:29.910Z,101771
2017-07-18T20:55:58.066Z,101776
2017-07-18T20:58:26.251Z,101766
2017-07-18T21:00:54.421Z,101765
2017-07-18T21:03:22.615Z,101769
2017-07-18T21:05:50.825Z,101769
2017-07-18T21:08:19.752Z,101772
2017-07-18T21:10:47.921Z,101778
2017-07-18T21:13:16.099Z,101775
2017-07-18T21:15:44.246Z,101778
2017-07-18T21:18:12.407Z,101776
2017-07-18T21:20:41.373Z,101775
2017-07-18T21:23:09.554Z,101777
2017-07-18T21:25:37.732Z,101771
2017-07-18T21:28:05.932Z,101776
2017-07-18T21:30:34.868Z,101767
2017-07-18T21:33:03.032Z,101762
2017-07-18T21:35:31.215Z,101758
2017-07-18T21:37:59.403Z,101754
2017-07-18T21:40:27.555Z,101751
2017-07-18T21:42:55.734Z,101743
2017-07-18T21:45:23.882Z,101747
2017-07-18T21:47:52.030Z,101742
2017-07-18T21:50:20.992Z,101740
2017-07-18T21:52:49.146Z,101740
2017-07-18T21:55:17.291Z,101735
2017-07-18T21:57:45.485Z,101728
2017-07-18T22:00:13.641Z,101738
2017-07-18T22:02:41.799Z,101735
2017-07-18T22:05:10.775Z,101730
2017-07-18T22:07:38.927Z,101733
2017-07-18T22:10:07.097Z,101729
2017-07-18T22:12:35.305Z,101722
2017-07-18T22:15:03.476Z,101728
2017-07-18T22:17:31.640Z,101732
2017-07-18T22:19:59.832Z,101730
2017-07-18T22:22:27.997Z,101727
2017-07-18T22:24:56.172Z,101732
2017-07-18T22:27:24.365Z,101733
2017-07-18T22:29:52.811Z,101733
2017-07-18T22:32:21.788Z,101730
2017-07-18T22:34:49.960Z,101731
2017-07-18T22:37:18.110Z,101728
2017-07-18T22:39:46.276Z,101724
2017-07-18T22:42:14.463Z,101727
2017-07-18T22:44:42.619Z,101733
2017-07-18T22:47:10.767Z,101729
2017-07-18T22:49:38.981Z,101730
2017-07-18T22:52:07.139Z,101724
2017-07-18T22:54:37.018Z,101729
2017-07-18T22:57:05.211Z,101716
2017-07-18T22:59:33.387Z,101729
2017-07-18T23:02:01.568Z,101728
2017-07-18T23:04:30.536Z,101732
2017-07-18T23:06:58.710Z,101734
2017-07-18T23:09:26.861Z,101734
2017-07-18T23:11:55.057Z,101730
2017-07-18T23:14:23.241Z,101725
2017-07-18T23:16:51.389Z,101725
2017-07-18T23:19:19.576Z,101726
2017-07-18T23:21:47.740Z,101725
2017-07-18T23:24:15.926Z,101724
2017-07-18T23:26:44.099Z,101730
2017-07-18T23:29:12.256Z,101724
2017-07-18T23:31:40.405Z,101722
2017-07-18T23:34:08.605Z,101725
2017-07-18T23:36:36.773Z,101724
2017-07-18T23:39:04.947Z,101719
2017-07-18T23:41:33.157Z,101718
2017-07-18T23:44:01.321Z,101713
2017-07-18T23:46:29.506Z,101713
2017-07-18T23:48:57.697Z,101709
2017-07-18T23:51:25.849Z,101706
2017-07-18T23:53:54.006Z,101698
2017-07-18T23:56:22.205Z,101697
2017-07-18T23:58:50.353Z,101706
